WAT2950 LERS-EBCI
Flight info
| Callsign | WAT2950 |
|---|---|
| Flight time | 1h 42m |
| Altitude | 30000 |
| Route | ARBEK T113 RUTIP DCT OKABI/N0461F340 DCT TOU DCT ADABI DCT BOKNO UN858 VANAD UN874 BAMES UT191 PODEM UN873 BAZOS DCT BELDI DCT VEKIN Z173 ARVOL |
| Aircraft | B738/M-SDE2E3FGHIRWXY/LB1 |
Departure
| Time | 2026-05-06 19:27 |
|---|---|
| Airport | Reus Airport (LERS) |
Arrival
| Time | 2026-05-06 21:10 |
|---|---|
| Airport | Brussels South Charleroi Airport (EBCI) |
| Time | Latitude | Longitude | Altitude | Speed | Heading |
|---|---|---|---|---|---|
| 2026-05-06 18:50 | 41.14665 | 1.15560 | 0 ft | 0 kts | 339° |
| 2026-05-06 19:19 | 41.14650 | 1.15568 | 241 ft | 2 kts | 339° |
| 2026-05-06 19:19 | 41.14635 | 1.15576 | 241 ft | 2 kts | 339° |
| 2026-05-06 19:20 | 41.14620 | 1.15583 | 241 ft | 2 kts | 346° |
| 2026-05-06 19:20 | 41.14604 | 1.15584 | 242 ft | 2 kts | 46° |
| 2026-05-06 19:20 | 41.14599 | 1.15575 | 242 ft | 1 kts | 70° |
| 2026-05-06 19:20 | 41.14599 | 1.15574 | 242 ft | 0 kts | 70° |
| 2026-05-06 19:21 | 41.14600 | 1.15582 | 242 ft | 5 kts | 79° |
| 2026-05-06 19:22 | 41.14611 | 1.15669 | 241 ft | 13 kts | 72° |
| 2026-05-06 19:22 | 41.14651 | 1.15807 | 241 ft | 18 kts | 68° |
| 2026-05-06 19:22 | 41.14697 | 1.15965 | 241 ft | 18 kts | 69° |
| 2026-05-06 19:22 | 41.14742 | 1.16119 | 241 ft | 18 kts | 69° |
| 2026-05-06 19:23 | 41.14785 | 1.16267 | 241 ft | 17 kts | 69° |
| 2026-05-06 19:23 | 41.14827 | 1.16411 | 241 ft | 16 kts | 69° |
| 2026-05-06 19:23 | 41.14868 | 1.16549 | 241 ft | 16 kts | 69° |
| 2026-05-06 19:23 | 41.14911 | 1.16697 | 241 ft | 20 kts | 69° |
| 2026-05-06 19:24 | 41.14962 | 1.16872 | 241 ft | 20 kts | 69° |
| 2026-05-06 19:24 | 41.15012 | 1.17043 | 241 ft | 20 kts | 69° |
| 2026-05-06 19:24 | 41.15060 | 1.17209 | 241 ft | 19 kts | 69° |
| 2026-05-06 19:24 | 41.15108 | 1.17369 | 241 ft | 18 kts | 69° |
| 2026-05-06 19:25 | 41.15154 | 1.17527 | 241 ft | 21 kts | 69° |
| 2026-05-06 19:25 | 41.15208 | 1.17711 | 241 ft | 21 kts | 69° |
| 2026-05-06 19:25 | 41.15260 | 1.17890 | 241 ft | 21 kts | 69° |
| 2026-05-06 19:25 | 41.15310 | 1.18061 | 241 ft | 20 kts | 68° |
| 2026-05-06 19:26 | 41.15344 | 1.18186 | 241 ft | 10 kts | 82° |
| 2026-05-06 19:26 | 41.15304 | 1.18249 | 241 ft | 10 kts | 155° |
| 2026-05-06 19:26 | 41.15229 | 1.18286 | 242 ft | 14 kts | 177° |
| 2026-05-06 19:26 | 41.15166 | 1.18176 | 242 ft | 24 kts | 249° |
| 2026-05-06 19:27 | 41.15016 | 1.17666 | 242 ft | 94 kts | 249° |
| 2026-05-06 19:27 | 41.14700 | 1.16592 | 241 ft | 153 kts | 248° |
| 2026-05-06 19:27 | 41.14451 | 1.15770 | 368 ft | 171 kts | 246° |
| 2026-05-06 19:27 | 41.14006 | 1.14251 | 1004 ft | 181 kts | 243° |
| 2026-05-06 19:28 | 41.13198 | 1.12956 | 1668 ft | 189 kts | 220° |
| 2026-05-06 19:28 | 41.12377 | 1.11630 | 2472 ft | 191 kts | 242° |
| 2026-05-06 19:28 | 41.11718 | 1.09982 | 2750 ft | 214 kts | 242° |
| 2026-05-06 19:28 | 41.10999 | 1.08156 | 3079 ft | 230 kts | 243° |
| 2026-05-06 19:29 | 41.10247 | 1.06238 | 3636 ft | 237 kts | 243° |
| 2026-05-06 19:29 | 41.09477 | 1.04279 | 4284 ft | 241 kts | 243° |
| 2026-05-06 19:29 | 41.08677 | 1.02251 | 4737 ft | 259 kts | 243° |
| 2026-05-06 19:29 | 41.07831 | 1.00108 | 5419 ft | 265 kts | 244° |
| 2026-05-06 19:30 | 41.06983 | 0.97966 | 6284 ft | 266 kts | 243° |
| 2026-05-06 19:30 | 41.06119 | 0.95791 | 7081 ft | 268 kts | 244° |
| 2026-05-06 19:30 | 41.05248 | 0.93600 | 7900 ft | 269 kts | 244° |
| 2026-05-06 19:30 | 41.04389 | 0.91393 | 8709 ft | 270 kts | 249° |
| 2026-05-06 19:31 | 41.04004 | 0.89143 | 9463 ft | 268 kts | 269° |
| 2026-05-06 19:31 | 41.04238 | 0.86701 | 10233 ft | 271 kts | 287° |
| 2026-05-06 19:31 | 41.06640 | 0.82486 | 10668 ft | 319 kts | 327° |
| 2026-05-06 19:32 | 41.08755 | 0.81377 | 10858 ft | 344 kts | 343° |
| 2026-05-06 19:32 | 41.11195 | 0.80855 | 11014 ft | 367 kts | 353° |
| 2026-05-06 19:32 | 41.13818 | 0.80736 | 11207 ft | 386 kts | 358° |
| 2026-05-06 19:32 | 41.16533 | 0.80877 | 11661 ft | 395 kts | 2° |
| 2026-05-06 19:33 | 41.19275 | 0.81346 | 12273 ft | 400 kts | 8° |
| 2026-05-06 19:33 | 41.21994 | 0.82195 | 12895 ft | 404 kts | 14° |
| 2026-05-06 19:33 | 41.24664 | 0.83440 | 13508 ft | 409 kts | 21° |
| 2026-05-06 19:33 | 41.27253 | 0.85080 | 14047 ft | 414 kts | 27° |
| 2026-05-06 19:34 | 41.29716 | 0.87105 | 14599 ft | 418 kts | 33° |
| 2026-05-06 19:34 | 41.31987 | 0.89460 | 15148 ft | 422 kts | 40° |
| 2026-05-06 19:34 | 41.34096 | 0.92189 | 15709 ft | 425 kts | 46° |
| 2026-05-06 19:34 | 41.35985 | 0.95241 | 16252 ft | 429 kts | 52° |
| 2026-05-06 19:35 | 41.37954 | 0.98224 | 16736 ft | 431 kts | 40° |
| 2026-05-06 19:35 | 41.40365 | 1.00588 | 17281 ft | 431 kts | 31° |
| 2026-05-06 19:35 | 41.42910 | 1.02726 | 17793 ft | 434 kts | 31° |
| 2026-05-06 19:35 | 41.45460 | 1.04908 | 18257 ft | 438 kts | 32° |
| 2026-05-06 19:36 | 41.48004 | 1.07164 | 18665 ft | 441 kts | 32° |
| 2026-05-06 19:36 | 41.50519 | 1.09444 | 19047 ft | 445 kts | 33° |
| 2026-05-06 19:36 | 41.53118 | 1.11714 | 19414 ft | 448 kts | 27° |
| 2026-05-06 19:36 | 41.55934 | 1.13498 | 19815 ft | 448 kts | 18° |
| 2026-05-06 19:37 | 41.58929 | 1.14654 | 20229 ft | 448 kts | 11° |
| 2026-05-06 19:37 | 41.61974 | 1.15608 | 20629 ft | 451 kts | 10° |
| 2026-05-06 19:37 | 41.65039 | 1.16549 | 21001 ft | 454 kts | 10° |
| 2026-05-06 19:37 | 41.67083 | 1.17181 | 21246 ft | 456 kts | 10° |
| 2026-05-06 19:38 | 41.71228 | 1.18488 | 21764 ft | 459 kts | 11° |
| 2026-05-06 19:38 | 41.74302 | 1.19476 | 22138 ft | 461 kts | 11° |
| 2026-05-06 19:38 | 41.77429 | 1.20493 | 22506 ft | 464 kts | 11° |
| 2026-05-06 19:38 | 41.80569 | 1.21520 | 22870 ft | 466 kts | 11° |
| 2026-05-06 19:39 | 41.83724 | 1.22556 | 23258 ft | 468 kts | 11° |
| 2026-05-06 19:39 | 41.86894 | 1.23597 | 23618 ft | 470 kts | 11° |
| 2026-05-06 19:39 | 41.90073 | 1.24642 | 23888 ft | 472 kts | 11° |
| 2026-05-06 19:39 | 41.93276 | 1.25695 | 24145 ft | 475 kts | 11° |
| 2026-05-06 19:40 | 41.96488 | 1.26751 | 24412 ft | 476 kts | 11° |
| 2026-05-06 19:40 | 41.99671 | 1.27799 | 24676 ft | 478 kts | 11° |
| 2026-05-06 19:40 | 42.02910 | 1.28867 | 24932 ft | 480 kts | 11° |
| 2026-05-06 19:40 | 42.06161 | 1.29939 | 25170 ft | 482 kts | 11° |
| 2026-05-06 19:41 | 42.09428 | 1.31019 | 25398 ft | 484 kts | 11° |
| 2026-05-06 19:41 | 42.12707 | 1.32102 | 25642 ft | 486 kts | 11° |
| 2026-05-06 19:41 | 42.15991 | 1.33187 | 25946 ft | 486 kts | 10° |
| 2026-05-06 19:41 | 42.19274 | 1.34268 | 26285 ft | 485 kts | 10° |
| 2026-05-06 19:42 | 42.22552 | 1.35346 | 26629 ft | 485 kts | 10° |
| 2026-05-06 19:42 | 42.25833 | 1.36426 | 26949 ft | 485 kts | 10° |
| 2026-05-06 19:42 | 42.29069 | 1.37493 | 27258 ft | 485 kts | 10° |
| 2026-05-06 19:42 | 42.32344 | 1.38575 | 27590 ft | 485 kts | 9° |
| 2026-05-06 19:43 | 42.35622 | 1.39659 | 27890 ft | 485 kts | 9° |
| 2026-05-06 19:43 | 42.38902 | 1.40746 | 28236 ft | 485 kts | 9° |
| 2026-05-06 19:43 | 42.42173 | 1.41831 | 28606 ft | 484 kts | 9° |
| 2026-05-06 19:43 | 42.45441 | 1.42914 | 28983 ft | 483 kts | 9° |
| 2026-05-06 19:44 | 42.48705 | 1.44000 | 29327 ft | 483 kts | 9° |
| 2026-05-06 19:44 | 42.51958 | 1.45102 | 29691 ft | 482 kts | 9° |
| 2026-05-06 19:44 | 42.55239 | 1.45872 | 29982 ft | 474 kts | 360° |
| 2026-05-06 19:44 | 42.58514 | 1.45909 | 29985 ft | 469 kts | 349° |
| 2026-05-06 19:45 | 42.64909 | 1.44827 | 30012 ft | 466 kts | 348° |
| 2026-05-06 19:45 | 42.71314 | 1.43715 | 30020 ft | 463 kts | 348° |
| 2026-05-06 19:46 | 42.77691 | 1.42667 | 30016 ft | 460 kts | 348° |
| 2026-05-06 19:46 | 42.84039 | 1.41647 | 30028 ft | 459 kts | 349° |
| 2026-05-06 19:47 | 42.90371 | 1.40632 | 30032 ft | 458 kts | 349° |
| 2026-05-06 19:47 | 42.96709 | 1.39615 | 30014 ft | 459 kts | 349° |
| 2026-05-06 19:48 | 43.03001 | 1.38604 | 30018 ft | 458 kts | 349° |
| 2026-05-06 19:48 | 43.09330 | 1.37583 | 30019 ft | 458 kts | 349° |
| 2026-05-06 19:49 | 43.15654 | 1.36561 | 30008 ft | 458 kts | 349° |
| 2026-05-06 19:49 | 43.21977 | 1.35537 | 30004 ft | 457 kts | 349° |
| 2026-05-06 19:50 | 43.28248 | 1.34520 | 30004 ft | 456 kts | 349° |
| 2026-05-06 19:50 | 43.34546 | 1.33496 | 30002 ft | 456 kts | 349° |
| 2026-05-06 19:51 | 43.40840 | 1.32470 | 29996 ft | 455 kts | 350° |
| 2026-05-06 19:51 | 43.47118 | 1.31445 | 29994 ft | 454 kts | 350° |
| 2026-05-06 19:52 | 43.53381 | 1.30420 | 29997 ft | 453 kts | 350° |
| 2026-05-06 19:52 | 43.59586 | 1.29403 | 29992 ft | 452 kts | 350° |
| 2026-05-06 19:53 | 43.65823 | 1.28378 | 29997 ft | 451 kts | 350° |
| 2026-05-06 19:53 | 43.72044 | 1.27353 | 29992 ft | 450 kts | 350° |
| 2026-05-06 19:54 | 43.78258 | 1.26328 | 29992 ft | 449 kts | 350° |
| 2026-05-06 19:54 | 43.84466 | 1.25301 | 29984 ft | 449 kts | 350° |
| 2026-05-06 19:55 | 43.90630 | 1.24279 | 29989 ft | 449 kts | 351° |
| 2026-05-06 19:55 | 43.96838 | 1.23248 | 29975 ft | 450 kts | 351° |
| 2026-05-06 19:56 | 44.03055 | 1.22214 | 29968 ft | 450 kts | 351° |
| 2026-05-06 19:56 | 44.09282 | 1.21175 | 29978 ft | 451 kts | 351° |
| 2026-05-06 19:57 | 44.15512 | 1.20134 | 29976 ft | 452 kts | 351° |
| 2026-05-06 19:57 | 44.21717 | 1.19095 | 29964 ft | 452 kts | 351° |
| 2026-05-06 19:58 | 44.27963 | 1.18047 | 29977 ft | 452 kts | 351° |
| 2026-05-06 19:58 | 44.34211 | 1.16996 | 29962 ft | 452 kts | 351° |
| 2026-05-06 19:59 | 44.40463 | 1.15943 | 29965 ft | 452 kts | 352° |
| 2026-05-06 19:59 | 44.46661 | 1.14896 | 29971 ft | 451 kts | 352° |
| 2026-05-06 20:00 | 44.52882 | 1.13844 | 29965 ft | 450 kts | 352° |
| 2026-05-06 20:00 | 44.59082 | 1.12792 | 29957 ft | 448 kts | 352° |
| 2026-05-06 20:01 | 44.65257 | 1.11742 | 29965 ft | 446 kts | 352° |
| 2026-05-06 20:01 | 44.71411 | 1.10694 | 29961 ft | 445 kts | 352° |
| 2026-05-06 20:02 | 44.77499 | 1.09655 | 29966 ft | 443 kts | 352° |
| 2026-05-06 20:02 | 44.83607 | 1.08610 | 29955 ft | 442 kts | 352° |
| 2026-05-06 20:03 | 44.89704 | 1.07564 | 29962 ft | 441 kts | 352° |
| 2026-05-06 20:03 | 44.95794 | 1.06518 | 29960 ft | 440 kts | 352° |
| 2026-05-06 20:04 | 45.01872 | 1.05471 | 29969 ft | 440 kts | 352° |
| 2026-05-06 20:04 | 45.07908 | 1.04430 | 29950 ft | 440 kts | 352° |
| 2026-05-06 20:05 | 45.13983 | 1.03379 | 29956 ft | 440 kts | 352° |
| 2026-05-06 20:05 | 45.20057 | 1.02326 | 29968 ft | 440 kts | 352° |
| 2026-05-06 20:06 | 45.26132 | 1.01271 | 29959 ft | 440 kts | 352° |
| 2026-05-06 20:06 | 45.32174 | 1.00220 | 29970 ft | 440 kts | 352° |
| 2026-05-06 20:07 | 45.38257 | 0.99159 | 29958 ft | 441 kts | 352° |
| 2026-05-06 20:07 | 45.44347 | 0.98095 | 29958 ft | 441 kts | 352° |
| 2026-05-06 20:08 | 45.50430 | 0.97029 | 29953 ft | 441 kts | 352° |
| 2026-05-06 20:08 | 45.56482 | 0.95967 | 29947 ft | 441 kts | 352° |
| 2026-05-06 20:09 | 45.62572 | 0.94896 | 29956 ft | 441 kts | 352° |
| 2026-05-06 20:09 | 45.68667 | 0.93821 | 29956 ft | 441 kts | 352° |
| 2026-05-06 20:10 | 45.74767 | 0.92743 | 29955 ft | 442 kts | 352° |
| 2026-05-06 20:10 | 45.80822 | 0.91671 | 29959 ft | 442 kts | 352° |
| 2026-05-06 20:11 | 45.86929 | 0.90587 | 29960 ft | 442 kts | 352° |
| 2026-05-06 20:11 | 45.93042 | 0.89499 | 29961 ft | 443 kts | 352° |
| 2026-05-06 20:12 | 45.99156 | 0.88410 | 29966 ft | 443 kts | 352° |
| 2026-05-06 20:12 | 46.05288 | 0.87314 | 29958 ft | 444 kts | 352° |
| 2026-05-06 20:13 | 46.11384 | 0.86222 | 29964 ft | 445 kts | 352° |
| 2026-05-06 20:13 | 46.17531 | 0.85119 | 29964 ft | 445 kts | 352° |
| 2026-05-06 20:14 | 46.23682 | 0.84013 | 29965 ft | 446 kts | 352° |
| 2026-05-06 20:14 | 46.29844 | 0.82902 | 29969 ft | 447 kts | 352° |
| 2026-05-06 20:15 | 46.35973 | 0.81794 | 29968 ft | 447 kts | 352° |
| 2026-05-06 20:15 | 46.42155 | 0.80675 | 29971 ft | 448 kts | 352° |
| 2026-05-06 20:17 | 46.60477 | 0.77341 | 29979 ft | 449 kts | 352° |
| 2026-05-06 20:17 | 46.66678 | 0.76208 | 29979 ft | 449 kts | 352° |
| 2026-05-06 20:18 | 46.72884 | 0.75071 | 29979 ft | 450 kts | 352° |
| 2026-05-06 20:18 | 46.79098 | 0.73930 | 29973 ft | 450 kts | 352° |
| 2026-05-06 20:19 | 46.85324 | 0.72784 | 29981 ft | 451 kts | 352° |
| 2026-05-06 20:19 | 46.91506 | 0.71644 | 29975 ft | 451 kts | 352° |
| 2026-05-06 20:20 | 46.97743 | 0.70490 | 29977 ft | 452 kts | 352° |
| 2026-05-06 20:20 | 47.03980 | 0.69365 | 29971 ft | 452 kts | 354° |
| 2026-05-06 20:21 | 47.10236 | 0.69616 | 29980 ft | 454 kts | 3° |
| 2026-05-06 20:21 | 47.16532 | 0.70374 | 29981 ft | 454 kts | 3° |
| 2026-05-06 20:22 | 47.22836 | 0.71087 | 29985 ft | 454 kts | 3° |
| 2026-05-06 20:22 | 47.29146 | 0.71754 | 29990 ft | 455 kts | 3° |
| 2026-05-06 20:23 | 47.35413 | 0.72407 | 29996 ft | 455 kts | 3° |
| 2026-05-06 20:23 | 47.41731 | 0.73070 | 29992 ft | 455 kts | 3° |
| 2026-05-06 20:24 | 47.48046 | 0.73754 | 29995 ft | 455 kts | 5° |
| 2026-05-06 20:24 | 47.54205 | 0.75951 | 30004 ft | 457 kts | 17° |
| 2026-05-06 20:25 | 47.60180 | 0.79005 | 29984 ft | 457 kts | 18° |
| 2026-05-06 20:25 | 47.66203 | 0.82047 | 29983 ft | 457 kts | 17° |
| 2026-05-06 20:26 | 47.72239 | 0.85032 | 29979 ft | 457 kts | 17° |
| 2026-05-06 20:26 | 47.78241 | 0.87993 | 29973 ft | 457 kts | 17° |
| 2026-05-06 20:27 | 47.84278 | 0.90985 | 29976 ft | 457 kts | 17° |
| 2026-05-06 20:27 | 47.90302 | 0.94017 | 29975 ft | 457 kts | 18° |
| 2026-05-06 20:28 | 47.96330 | 0.97075 | 29975 ft | 457 kts | 18° |
| 2026-05-06 20:28 | 48.02312 | 1.00114 | 29975 ft | 457 kts | 18° |
| 2026-05-06 20:29 | 48.08336 | 1.03178 | 29975 ft | 457 kts | 18° |
| 2026-05-06 20:29 | 48.14358 | 1.06248 | 29978 ft | 457 kts | 18° |
| 2026-05-06 20:30 | 48.23399 | 1.10868 | 29979 ft | 458 kts | 18° |
| 2026-05-06 20:31 | 48.29431 | 1.13940 | 29981 ft | 458 kts | 18° |
| 2026-05-06 20:31 | 48.35422 | 1.16996 | 29978 ft | 458 kts | 18° |
| 2026-05-06 20:32 | 48.41456 | 1.20084 | 29983 ft | 458 kts | 18° |
| 2026-05-06 20:32 | 48.47483 | 1.23178 | 29979 ft | 458 kts | 18° |
| 2026-05-06 20:33 | 48.53520 | 1.26284 | 29980 ft | 458 kts | 18° |
| 2026-05-06 20:33 | 48.59521 | 1.29345 | 29985 ft | 458 kts | 18° |
| 2026-05-06 20:34 | 48.65574 | 1.32384 | 29986 ft | 459 kts | 18° |
| 2026-05-06 20:34 | 48.71630 | 1.35435 | 29990 ft | 459 kts | 18° |
| 2026-05-06 20:35 | 48.77688 | 1.38502 | 29988 ft | 459 kts | 18° |
| 2026-05-06 20:35 | 48.83706 | 1.41561 | 29989 ft | 459 kts | 18° |
| 2026-05-06 20:36 | 48.89765 | 1.44648 | 29987 ft | 459 kts | 18° |
| 2026-05-06 20:36 | 48.95826 | 1.47742 | 29991 ft | 460 kts | 18° |
| 2026-05-06 20:37 | 49.02048 | 1.49868 | 29998 ft | 459 kts | 8° |
| 2026-05-06 20:37 | 49.08337 | 1.51187 | 29990 ft | 460 kts | 7° |
| 2026-05-06 20:38 | 49.14666 | 1.52604 | 29987 ft | 460 kts | 8° |
| 2026-05-06 20:38 | 49.20994 | 1.54097 | 29992 ft | 460 kts | 9° |
| 2026-05-06 20:38 | 49.24090 | 1.55309 | 29980 ft | 461 kts | 20° |
| 2026-05-06 20:39 | 49.26995 | 1.57388 | 29994 ft | 462 kts | 29° |
| 2026-05-06 20:39 | 49.29606 | 1.60145 | 29977 ft | 463 kts | 40° |
| 2026-05-06 20:39 | 49.31957 | 1.63516 | 30000 ft | 463 kts | 43° |
| 2026-05-06 20:40 | 49.36557 | 1.70443 | 29988 ft | 464 kts | 44° |
| 2026-05-06 20:40 | 49.41188 | 1.77334 | 29986 ft | 464 kts | 43° |
| 2026-05-06 20:41 | 49.45818 | 1.84134 | 29990 ft | 464 kts | 43° |
| 2026-05-06 20:41 | 49.50485 | 1.90996 | 29989 ft | 464 kts | 43° |
| 2026-05-06 20:42 | 49.55149 | 1.97880 | 29996 ft | 464 kts | 43° |
| 2026-05-06 20:42 | 49.59806 | 2.04767 | 29986 ft | 465 kts | 43° |
| 2026-05-06 20:43 | 49.64462 | 2.11675 | 29984 ft | 465 kts | 43° |
| 2026-05-06 20:43 | 49.69092 | 2.18565 | 29994 ft | 465 kts | 43° |
| 2026-05-06 20:44 | 49.73749 | 2.25512 | 29978 ft | 465 kts | 44° |
| 2026-05-06 20:44 | 49.78400 | 2.32475 | 29966 ft | 466 kts | 44° |
| 2026-05-06 20:45 | 49.83053 | 2.39462 | 29975 ft | 466 kts | 44° |
| 2026-05-06 20:45 | 49.87667 | 2.46405 | 29966 ft | 466 kts | 44° |
| 2026-05-06 20:46 | 49.92310 | 2.53418 | 29972 ft | 466 kts | 44° |
| 2026-05-06 20:46 | 49.96952 | 2.60442 | 29965 ft | 466 kts | 44° |
| 2026-05-06 20:47 | 50.01588 | 2.67506 | 29976 ft | 466 kts | 44° |
| 2026-05-06 20:47 | 50.06185 | 2.74540 | 29967 ft | 467 kts | 44° |
| 2026-05-06 20:48 | 50.10816 | 2.81644 | 29951 ft | 468 kts | 44° |
| 2026-05-06 20:48 | 50.13152 | 2.85230 | 29155 ft | 474 kts | 44° |
| 2026-05-06 20:48 | 50.15489 | 2.88826 | 28356 ft | 470 kts | 44° |
| 2026-05-06 20:48 | 50.17807 | 2.92401 | 27499 ft | 468 kts | 44° |
| 2026-05-06 20:49 | 50.20091 | 2.95929 | 26594 ft | 468 kts | 44° |
| 2026-05-06 20:49 | 50.22407 | 2.99511 | 25692 ft | 469 kts | 44° |
| 2026-05-06 20:49 | 50.24707 | 3.03071 | 25055 ft | 463 kts | 44° |
| 2026-05-06 20:49 | 50.26985 | 3.06604 | 24391 ft | 459 kts | 44° |
| 2026-05-06 20:50 | 50.29236 | 3.10097 | 23744 ft | 455 kts | 44° |
| 2026-05-06 20:50 | 50.31473 | 3.13574 | 22999 ft | 451 kts | 44° |
| 2026-05-06 20:50 | 50.33687 | 3.17020 | 22293 ft | 446 kts | 44° |
| 2026-05-06 20:50 | 50.35873 | 3.20425 | 21628 ft | 441 kts | 44° |
| 2026-05-06 20:51 | 50.38005 | 3.23751 | 20992 ft | 436 kts | 44° |
| 2026-05-06 20:51 | 50.40140 | 3.27088 | 20361 ft | 431 kts | 44° |
| 2026-05-06 20:51 | 50.42259 | 3.30398 | 19723 ft | 427 kts | 44° |
| 2026-05-06 20:51 | 50.44356 | 3.33668 | 19104 ft | 423 kts | 44° |
| 2026-05-06 20:52 | 50.46434 | 3.36910 | 18483 ft | 420 kts | 44° |
| 2026-05-06 20:52 | 50.48496 | 3.40131 | 17810 ft | 416 kts | 44° |
| 2026-05-06 20:52 | 50.50539 | 3.43325 | 17139 ft | 412 kts | 44° |
| 2026-05-06 20:52 | 50.52561 | 3.46492 | 16500 ft | 409 kts | 44° |
| 2026-05-06 20:53 | 50.54405 | 3.49847 | 15882 ft | 406 kts | 58° |
| 2026-05-06 20:53 | 50.55503 | 3.53803 | 15635 ft | 396 kts | 71° |
| 2026-05-06 20:53 | 50.56301 | 3.57963 | 15324 ft | 405 kts | 73° |
| 2026-05-06 20:53 | 50.57084 | 3.62294 | 14990 ft | 416 kts | 73° |
| 2026-05-06 20:54 | 50.57869 | 3.66668 | 14651 ft | 413 kts | 73° |
| 2026-05-06 20:54 | 50.58652 | 3.70984 | 14312 ft | 408 kts | 73° |
| 2026-05-06 20:54 | 50.59436 | 3.75250 | 13994 ft | 404 kts | 73° |
| 2026-05-06 20:54 | 50.60221 | 3.79481 | 13658 ft | 401 kts | 73° |
| 2026-05-06 20:55 | 50.61004 | 3.83686 | 13319 ft | 400 kts | 73° |
| 2026-05-06 20:55 | 50.61776 | 3.87819 | 12990 ft | 398 kts | 73° |
| 2026-05-06 20:55 | 50.62556 | 3.92000 | 12667 ft | 397 kts | 73° |
| 2026-05-06 20:55 | 50.63330 | 3.96162 | 12345 ft | 394 kts | 73° |
| 2026-05-06 20:56 | 50.64089 | 4.00252 | 11991 ft | 384 kts | 73° |
| 2026-05-06 20:56 | 50.64824 | 4.04227 | 11703 ft | 373 kts | 73° |
| 2026-05-06 20:56 | 50.65538 | 4.08100 | 11411 ft | 363 kts | 73° |
| 2026-05-06 20:56 | 50.66201 | 4.11693 | 11138 ft | 354 kts | 73° |
| 2026-05-06 20:57 | 50.66880 | 4.15382 | 10865 ft | 346 kts | 73° |
| 2026-05-06 20:57 | 50.67529 | 4.18916 | 10595 ft | 333 kts | 73° |
| 2026-05-06 20:57 | 50.68154 | 4.22338 | 10345 ft | 318 kts | 74° |
| 2026-05-06 20:57 | 50.68358 | 4.25711 | 10083 ft | 305 kts | 97° |
| 2026-05-06 20:58 | 50.67710 | 4.28796 | 9887 ft | 291 kts | 120° |
| 2026-05-06 20:58 | 50.66506 | 4.31240 | 9667 ft | 280 kts | 138° |
| 2026-05-06 20:58 | 50.64929 | 4.32962 | 9434 ft | 273 kts | 150° |
| 2026-05-06 20:58 | 50.63258 | 4.34392 | 9202 ft | 273 kts | 152° |
| 2026-05-06 20:59 | 50.61567 | 4.35770 | 8984 ft | 274 kts | 152° |
| 2026-05-06 20:59 | 50.59897 | 4.37130 | 8766 ft | 274 kts | 152° |
| 2026-05-06 20:59 | 50.58202 | 4.38523 | 8552 ft | 276 kts | 152° |
| 2026-05-06 20:59 | 50.56502 | 4.39931 | 8329 ft | 277 kts | 152° |
| 2026-05-06 21:00 | 50.54791 | 4.41355 | 8109 ft | 277 kts | 152° |
| 2026-05-06 21:00 | 50.53088 | 4.42778 | 7879 ft | 278 kts | 152° |
| 2026-05-06 21:00 | 50.51452 | 4.44146 | 7672 ft | 278 kts | 152° |
| 2026-05-06 21:00 | 50.49742 | 4.45573 | 7450 ft | 278 kts | 152° |
| 2026-05-06 21:01 | 50.48045 | 4.47025 | 7222 ft | 278 kts | 146° |
| 2026-05-06 21:01 | 50.46738 | 4.49172 | 6989 ft | 277 kts | 118° |
| 2026-05-06 21:01 | 50.46096 | 4.51984 | 6801 ft | 275 kts | 101° |
| 2026-05-06 21:01 | 50.45711 | 4.54924 | 6582 ft | 275 kts | 99° |
| 2026-05-06 21:02 | 50.45336 | 4.57872 | 6355 ft | 274 kts | 99° |
| 2026-05-06 21:02 | 50.44953 | 4.60782 | 6115 ft | 270 kts | 99° |
| 2026-05-06 21:02 | 50.44568 | 4.63642 | 5880 ft | 266 kts | 99° |
| 2026-05-06 21:02 | 50.44182 | 4.66468 | 5679 ft | 264 kts | 99° |
| 2026-05-06 21:03 | 50.43989 | 4.69301 | 5445 ft | 260 kts | 79° |
| 2026-05-06 21:03 | 50.44501 | 4.71920 | 5260 ft | 253 kts | 62° |
| 2026-05-06 21:03 | 50.45234 | 4.74412 | 5094 ft | 250 kts | 62° |
| 2026-05-06 21:03 | 50.45984 | 4.76862 | 4890 ft | 245 kts | 55° |
| 2026-05-06 21:04 | 50.47148 | 4.78664 | 4729 ft | 231 kts | 25° |
| 2026-05-06 21:04 | 50.48663 | 4.79361 | 4535 ft | 227 kts | 2° |
| 2026-05-06 21:04 | 50.50223 | 4.79055 | 4353 ft | 228 kts | 341° |
| 2026-05-06 21:04 | 50.51673 | 4.78126 | 4147 ft | 222 kts | 336° |
| 2026-05-06 21:05 | 50.53005 | 4.76981 | 3950 ft | 217 kts | 319° |
| 2026-05-06 21:05 | 50.53799 | 4.75033 | 3792 ft | 213 kts | 288° |
| 2026-05-06 21:05 | 50.53782 | 4.72741 | 3627 ft | 218 kts | 256° |
| 2026-05-06 21:05 | 50.53271 | 4.70489 | 3496 ft | 218 kts | 252° |
| 2026-05-06 21:06 | 50.52694 | 4.68341 | 3339 ft | 208 kts | 249° |
| 2026-05-06 21:06 | 50.52112 | 4.66337 | 3171 ft | 195 kts | 249° |
| 2026-05-06 21:06 | 50.51553 | 4.64432 | 3049 ft | 190 kts | 249° |
| 2026-05-06 21:06 | 50.50997 | 4.62523 | 2814 ft | 193 kts | 249° |
| 2026-05-06 21:07 | 50.50451 | 4.60656 | 2575 ft | 184 kts | 249° |
| 2026-05-06 21:07 | 50.49923 | 4.58840 | 2309 ft | 180 kts | 249° |
| 2026-05-06 21:07 | 50.49428 | 4.57139 | 2100 ft | 166 kts | 248° |
| 2026-05-06 21:07 | 50.48961 | 4.55534 | 1858 ft | 157 kts | 248° |
| 2026-05-06 21:08 | 50.48504 | 4.53961 | 1648 ft | 160 kts | 248° |
| 2026-05-06 21:08 | 50.48043 | 4.52372 | 1415 ft | 160 kts | 246° |
| 2026-05-06 21:08 | 50.47589 | 4.50807 | 1169 ft | 155 kts | 247° |
| 2026-05-06 21:08 | 50.47140 | 4.49291 | 946 ft | 151 kts | 246° |
| 2026-05-06 21:09 | 50.46699 | 4.47788 | 756 ft | 153 kts | 248° |
| 2026-05-06 21:09 | 50.46268 | 4.46286 | 619 ft | 144 kts | 248° |
| 2026-05-06 21:09 | 50.45927 | 4.45091 | 617 ft | 92 kts | 246° |
| 2026-05-06 21:09 | 50.45741 | 4.44442 | 626 ft | 52 kts | 245° |
| 2026-05-06 21:10 | 50.45644 | 4.44106 | 622 ft | 20 kts | 245° |
| 2026-05-06 21:10 | 50.45652 | 4.43991 | 618 ft | 9 kts | 326° |
| 2026-05-06 21:10 | 50.45707 | 4.44022 | 625 ft | 9 kts | 48° |
| 2026-05-06 21:10 | 50.45747 | 4.44098 | 618 ft | 9 kts | 51° |
| 2026-05-06 21:11 | 50.45784 | 4.44173 | 613 ft | 9 kts | 52° |
| 2026-05-06 21:11 | 50.45820 | 4.44246 | 613 ft | 8 kts | 53° |
| 2026-05-06 21:11 | 50.45858 | 4.44323 | 618 ft | 10 kts | 51° |
| 2026-05-06 21:11 | 50.45911 | 4.44431 | 613 ft | 14 kts | 55° |
| 2026-05-06 21:12 | 50.45969 | 4.44583 | 622 ft | 18 kts | 60° |
| 2026-05-06 21:12 | 50.46026 | 4.44780 | 616 ft | 21 kts | 67° |
| 2026-05-06 21:12 | 50.46085 | 4.44999 | 622 ft | 22 kts | 66° |
| 2026-05-06 21:12 | 50.46147 | 4.45212 | 616 ft | 21 kts | 65° |
| 2026-05-06 21:13 | 50.46207 | 4.45419 | 619 ft | 21 kts | 65° |
| 2026-05-06 21:13 | 50.46265 | 4.45620 | 616 ft | 20 kts | 65° |
| 2026-05-06 21:13 | 50.46321 | 4.45815 | 615 ft | 19 kts | 65° |
| 2026-05-06 21:13 | 50.46374 | 4.46001 | 621 ft | 19 kts | 65° |
| 2026-05-06 21:14 | 50.46427 | 4.46182 | 622 ft | 18 kts | 65° |
| 2026-05-06 21:14 | 50.46478 | 4.46359 | 617 ft | 17 kts | 65° |
| 2026-05-06 21:14 | 50.46526 | 4.46520 | 623 ft | 13 kts | 59° |
| 2026-05-06 21:14 | 50.46608 | 4.46531 | 623 ft | 13 kts | 348° |
| 2026-05-06 21:15 | 50.46669 | 4.46616 | 619 ft | 13 kts | 63° |
| 2026-05-06 21:15 | 50.46705 | 4.46738 | 615 ft | 12 kts | 65° |
| 2026-05-06 21:15 | 50.46740 | 4.46858 | 614 ft | 12 kts | 65° |
| 2026-05-06 21:15 | 50.46774 | 4.46974 | 618 ft | 12 kts | 65° |
| 2026-05-06 21:16 | 50.46810 | 4.47099 | 616 ft | 13 kts | 65° |
| 2026-05-06 21:16 | 50.46848 | 4.47230 | 615 ft | 13 kts | 65° |
| 2026-05-06 21:16 | 50.46878 | 4.47306 | 612 ft | 4 kts | 27° |
| 2026-05-06 21:16 | 50.46903 | 4.47301 | 612 ft | 4 kts | 344° |
| 2026-05-06 21:17 | 50.46923 | 4.47289 | 614 ft | 0 kts | 337° |